createdAt,value
2023-02-11T00:00:30.798Z,12.27
2023-02-11T00:02:57.478Z,12.00
2023-02-11T00:05:24.071Z,12.25
2023-02-11T00:07:50.688Z,10.88
2023-02-11T00:10:17.382Z,13.30
2023-02-11T00:12:43.977Z,11.48
2023-02-11T00:15:11.053Z,12.52
2023-02-11T00:17:37.665Z,11.90
2023-02-11T00:20:07.221Z,11.38
2023-02-11T00:22:34.702Z,12.38
2023-02-11T00:25:01.482Z,12.23
2023-02-11T00:27:28.093Z,13.35
2023-02-11T00:29:54.833Z,11.82
2023-02-11T00:32:21.787Z,12.35
2023-02-11T00:34:52.423Z,11.63
2023-02-11T00:37:19.036Z,11.80
2023-02-11T00:39:45.770Z,10.57
2023-02-11T00:42:14.973Z,10.65
2023-02-11T00:44:41.735Z,11.32
2023-02-11T00:47:08.356Z,11.07
2023-02-11T00:49:35.150Z,10.00
2023-02-11T00:52:01.775Z,11.38
2023-02-11T00:54:29.992Z,11.05
2023-02-11T00:56:56.692Z,10.20
2023-02-11T00:59:23.291Z,10.40
2023-02-11T01:01:49.933Z,9.75
2023-02-11T01:04:16.582Z,11.05
2023-02-11T01:06:43.186Z,9.93
2023-02-11T01:09:09.856Z,9.50
2023-02-11T01:11:36.492Z,10.38
2023-02-11T01:14:03.215Z,10.27
2023-02-11T01:16:29.951Z,10.25
2023-02-11T01:18:56.692Z,10.20
2023-02-11T01:21:23.341Z,9.27
2023-02-11T01:23:49.941Z,10.05
2023-02-11T01:26:16.890Z,10.98
2023-02-11T01:28:43.623Z,10.32
2023-02-11T01:31:10.401Z,9.55
2023-02-11T01:33:37.081Z,9.27
2023-02-11T01:36:05.508Z,9.68
2023-02-11T01:38:33.110Z,8.57
2023-02-11T01:41:06.948Z,9.38
2023-02-11T01:43:41.422Z,10.00
2023-02-11T01:46:29.901Z,8.15
2023-02-11T01:49:11.158Z,9.32
2023-02-11T01:51:45.987Z,10.38
2023-02-11T01:54:35.278Z,10.15
2023-02-11T01:57:22.417Z,9.10
2023-02-11T02:00:07.374Z,9.32
2023-02-11T02:03:12.586Z,8.45
2023-02-11T02:05:46.671Z,8.77
2023-02-11T02:08:36.221Z,9.20
2023-02-11T02:11:03.714Z,9.60
2023-02-11T02:13:33.969Z,8.50
2023-02-11T02:16:09.686Z,8.93
2023-02-11T02:18:51.604Z,8.48
2023-02-11T02:21:46.169Z,8.70
2023-02-11T02:24:35.766Z,10.23
2023-02-11T02:27:14.179Z,9.52
2023-02-11T02:30:18.305Z,8.32
2023-02-11T02:32:51.000Z,10.30
2023-02-11T02:35:23.698Z,10.52
2023-02-11T02:38:16.233Z,7.80
2023-02-11T02:41:01.565Z,9.10
2023-02-11T02:43:30.265Z,10.07
2023-02-11T02:46:18.847Z,6.97
2023-02-11T02:48:46.288Z,10.65
2023-02-11T02:51:50.472Z,7.95
2023-02-11T02:54:38.958Z,7.97
2023-02-11T02:57:59.381Z,7.35
2023-02-11T03:00:34.813Z,8.05
2023-02-11T03:03:18.099Z,7.35
2023-02-11T03:06:05.149Z,7.65
2023-02-11T03:08:47.013Z,8.43
2023-02-11T03:11:17.687Z,7.68
2023-02-11T03:13:46.146Z,8.48
2023-02-11T03:16:20.046Z,8.18
2023-02-11T03:18:52.841Z,7.28
2023-02-11T03:21:20.745Z,8.23
2023-02-11T03:23:54.054Z,9.23
2023-02-11T03:26:33.017Z,8.25
2023-02-11T03:29:14.669Z,8.65
2023-02-11T03:31:54.929Z,8.50
2023-02-11T03:34:27.021Z,7.55
2023-02-11T03:37:04.394Z,8.35
2023-02-11T03:39:37.099Z,7.40
2023-02-11T03:42:05.952Z,21.75
2023-02-11T03:44:38.780Z,10.35
2023-02-11T03:47:09.414Z,11.55
2023-02-11T03:49:38.540Z,8.25
2023-02-11T03:52:07.872Z,16.17
2023-02-11T03:54:35.263Z,15.35
2023-02-11T03:57:02.744Z,10.02
2023-02-11T03:59:29.814Z,10.10
2023-02-11T04:01:57.745Z,10.63
2023-02-11T04:04:24.412Z,8.73
2023-02-11T04:06:51.016Z,12.80
2023-02-11T04:09:17.668Z,10.23
2023-02-11T04:11:44.248Z,8.77
2023-02-11T04:14:10.870Z,8.50
2023-02-11T04:16:37.587Z,18.77
2023-02-11T04:19:04.273Z,11.40
2023-02-11T04:21:30.864Z,9.20
2023-02-11T04:23:57.447Z,10.75
2023-02-11T04:26:24.046Z,8.18
2023-02-11T04:28:50.644Z,9.73
2023-02-11T04:31:17.327Z,8.38
2023-02-11T04:33:43.988Z,7.88
2023-02-11T04:36:10.573Z,9.52
2023-02-11T04:38:37.183Z,8.80
2023-02-11T04:41:03.887Z,7.82
2023-02-11T04:43:30.476Z,8.68
2023-02-11T04:45:58.931Z,7.20
2023-02-11T04:48:26.665Z,8.40
2023-02-11T04:50:53.292Z,7.47
2023-02-11T04:53:20.140Z,7.53
2023-02-11T04:55:50.559Z,8.50
2023-02-11T04:58:18.970Z,10.02
2023-02-11T05:00:46.253Z,8.82
2023-02-11T05:03:13.196Z,13.60
2023-02-11T05:05:40.784Z,9.60
2023-02-11T05:08:08.562Z,19.98
2023-02-11T05:10:35.321Z,13.20
2023-02-11T05:13:01.924Z,9.05
2023-02-11T05:15:29.513Z,8.75
2023-02-11T05:17:56.437Z,13.05
2023-02-11T05:20:23.010Z,7.63
2023-02-11T05:22:49.628Z,8.23
2023-02-11T05:25:16.239Z,9.18
2023-02-11T05:27:42.838Z,9.75
2023-02-11T05:30:10.754Z,10.68
2023-02-11T05:32:37.406Z,8.68
2023-02-11T05:35:04.202Z,13.80
2023-02-11T05:37:30.906Z,7.35
2023-02-11T05:39:57.522Z,6.63
2023-02-11T05:42:24.138Z,6.70
2023-02-11T05:44:50.845Z,7.65
2023-02-11T05:47:17.510Z,7.85
2023-02-11T05:49:44.088Z,8.50
2023-02-11T05:52:10.652Z,7.47
2023-02-11T05:54:37.262Z,7.93
2023-02-11T05:57:03.898Z,7.45
2023-02-11T05:59:30.638Z,7.03
2023-02-11T06:01:57.279Z,7.80
2023-02-11T06:04:23.904Z,7.50
2023-02-11T06:06:50.568Z,9.40
2023-02-11T06:09:17.195Z,6.25
2023-02-11T06:11:43.793Z,7.97
2023-02-11T06:14:11.056Z,6.80
2023-02-11T06:16:38.298Z,8.00
2023-02-11T06:19:04.871Z,7.53
2023-02-11T06:21:42.883Z,6.93
2023-02-11T06:24:10.385Z,7.75
2023-02-11T06:26:37.094Z,6.65
2023-02-11T06:29:03.752Z,6.32
2023-02-11T06:31:30.651Z,7.03
2023-02-11T06:33:58.532Z,6.95
2023-02-11T06:36:25.602Z,6.28
2023-02-11T06:38:52.453Z,6.53
2023-02-11T06:41:23.049Z,7.20
2023-02-11T06:43:49.913Z,7.47
2023-02-11T06:46:16.672Z,11.52
2023-02-11T06:48:44.987Z,8.48
2023-02-11T06:51:13.441Z,6.70
2023-02-11T06:53:45.512Z,7.50
2023-02-11T06:56:16.736Z,8.88
2023-02-11T06:58:43.497Z,7.80
2023-02-11T07:01:13.744Z,7.22
2023-02-11T07:03:43.177Z,8.20
2023-02-11T07:06:14.383Z,8.88
2023-02-11T07:08:42.572Z,7.95
2023-02-11T07:11:11.436Z,8.50
2023-02-11T07:13:38.070Z,8.85
2023-02-11T07:16:09.585Z,9.05
2023-02-11T07:18:36.252Z,9.52
2023-02-11T07:21:07.809Z,8.80
2023-02-11T07:23:35.610Z,8.38
2023-02-11T07:26:11.353Z,8.13
2023-02-11T07:28:39.097Z,9.10
2023-02-11T07:31:07.985Z,7.53
2023-02-11T07:33:35.454Z,9.82
2023-02-11T07:36:02.163Z,9.80
2023-02-11T07:38:28.792Z,10.38
2023-02-11T07:40:55.404Z,8.48
2023-02-11T07:43:21.975Z,7.68
2023-02-11T07:45:48.717Z,10.43
2023-02-11T07:48:15.462Z,9.15
2023-02-11T07:50:42.059Z,8.07
2023-02-11T07:53:08.646Z,8.10
2023-02-11T07:55:35.613Z,8.05
2023-02-11T07:58:02.181Z,8.85
2023-02-11T08:00:28.841Z,8.70
2023-02-11T08:02:57.490Z,9.10
2023-02-11T08:05:24.148Z,9.18
2023-02-11T08:07:55.129Z,8.95
2023-02-11T08:10:22.080Z,7.30
2023-02-11T08:12:48.757Z,9.88
2023-02-11T08:15:15.328Z,9.90
2023-02-11T08:17:41.934Z,11.30
2023-02-11T08:20:08.825Z,9.23
2023-02-11T08:22:35.471Z,8.32
2023-02-11T08:25:02.090Z,8.35
2023-02-11T08:27:29.105Z,8.23
2023-02-11T08:29:56.426Z,9.60
2023-02-11T08:32:25.584Z,9.55
2023-02-11T08:34:53.332Z,12.18
2023-02-11T08:37:20.458Z,10.63
2023-02-11T08:39:47.501Z,9.48
2023-02-11T08:42:15.665Z,13.82
2023-02-11T08:44:43.112Z,16.95
2023-02-11T08:47:09.793Z,23.95
2023-02-11T08:49:36.523Z,25.27
2023-02-11T08:52:03.989Z,15.48
2023-02-11T08:54:31.825Z,11.65
2023-02-11T08:56:58.584Z,10.73
2023-02-11T08:59:25.229Z,9.30
2023-02-11T09:01:51.936Z,8.88
2023-02-11T09:04:18.652Z,7.57
2023-02-11T09:06:45.999Z,8.10
2023-02-11T09:09:15.277Z,7.57
2023-02-11T09:11:43.900Z,9.50
2023-02-11T09:14:18.496Z,9.13
2023-02-11T09:16:45.156Z,7.65
2023-02-11T09:19:11.776Z,8.38
2023-02-11T09:21:38.536Z,6.82
2023-02-11T09:24:06.635Z,7.05
2023-02-11T09:26:35.674Z,6.75
2023-02-11T09:29:04.720Z,5.60
2023-02-11T09:31:33.040Z,6.88
2023-02-11T09:34:04.421Z,6.55
2023-02-11T09:36:34.424Z,7.60
2023-02-11T09:39:02.459Z,8.15
2023-02-11T09:41:40.925Z,8.85
2023-02-11T09:44:16.645Z,7.40
2023-02-11T09:46:47.753Z,10.23
2023-02-11T09:49:22.006Z,7.03
2023-02-11T09:51:54.895Z,6.80
2023-02-11T09:54:31.632Z,7.95
2023-02-11T09:56:58.322Z,9.68
2023-02-11T09:59:24.964Z,8.77
2023-02-11T10:02:02.425Z,6.88
2023-02-11T10:04:47.348Z,6.82
2023-02-11T10:07:21.180Z,6.50
2023-02-11T10:10:17.584Z,6.60
2023-02-11T10:13:08.014Z,5.55
2023-02-11T10:15:34.600Z,4.20
2023-02-11T10:18:35.742Z,5.07
2023-02-11T10:21:22.576Z,4.70
2023-02-11T10:23:53.872Z,5.32
2023-02-11T10:26:20.589Z,4.75
2023-02-11T10:28:50.334Z,4.38
2023-02-11T10:31:28.854Z,4.32
2023-02-11T10:34:12.921Z,4.82
2023-02-11T10:36:45.034Z,4.60
2023-02-11T10:39:18.295Z,4.78
2023-02-11T10:41:59.372Z,4.95
2023-02-11T10:44:31.308Z,4.38
2023-02-11T10:47:02.155Z,4.45
2023-02-11T10:49:42.277Z,4.53
2023-02-11T10:52:18.200Z,4.25
2023-02-11T10:54:59.466Z,4.22
2023-02-11T10:57:35.603Z,4.05
2023-02-11T11:00:21.169Z,4.07
2023-02-11T11:02:58.553Z,4.20
2023-02-11T11:05:45.591Z,4.20
2023-02-11T11:08:13.223Z,4.38
2023-02-11T11:10:45.990Z,4.00
2023-02-11T11:13:24.921Z,4.15
2023-02-11T11:16:10.285Z,4.47
2023-02-11T11:18:36.910Z,4.45
2023-02-11T11:21:12.849Z,4.18
2023-02-11T11:23:40.647Z,4.60
2023-02-11T11:26:15.815Z,4.72
2023-02-11T11:29:08.129Z,4.45
2023-02-11T11:31:46.427Z,4.35
2023-02-11T11:34:21.827Z,3.90
2023-02-11T11:36:49.998Z,3.92
2023-02-11T11:39:25.518Z,3.85
2023-02-11T11:41:55.394Z,4.28
2023-02-11T11:44:31.796Z,3.80
2023-02-11T11:47:13.601Z,3.97
2023-02-11T11:50:14.855Z,4.00
2023-02-11T11:53:01.668Z,4.13
2023-02-11T11:55:39.772Z,3.13
2023-02-11T11:58:13.571Z,3.70
2023-02-11T12:00:47.705Z,4.00
2023-02-11T12:03:32.849Z,3.20
2023-02-11T12:05:59.478Z,3.88
2023-02-11T12:08:38.148Z,3.38
2023-02-11T12:11:07.510Z,4.00
2023-02-11T12:13:56.676Z,3.50
2023-02-11T12:17:00.191Z,3.30
2023-02-11T12:19:45.504Z,3.58
2023-02-11T12:22:26.869Z,3.90
2023-02-11T12:25:08.648Z,3.70
2023-02-11T12:27:50.374Z,3.80
2023-02-11T12:30:50.006Z,4.40
2023-02-11T12:33:35.403Z,3.40
2023-02-11T12:36:35.435Z,4.15
2023-02-11T12:39:20.705Z,4.20
2023-02-11T12:42:38.042Z,3.65
2023-02-11T12:45:26.044Z,3.58
2023-02-11T12:48:15.571Z,3.63
2023-02-11T12:50:52.471Z,3.83
2023-02-11T12:53:40.048Z,4.10
2023-02-11T12:56:40.726Z,3.90
2023-02-11T12:59:17.388Z,3.95
2023-02-11T13:01:45.113Z,3.60
2023-02-11T13:04:35.354Z,3.67
2023-02-11T13:07:15.904Z,3.95
2023-02-11T13:09:51.045Z,4.00
2023-02-11T13:12:37.133Z,3.83
2023-02-11T13:15:07.990Z,3.45
2023-02-11T13:17:59.418Z,4.00
2023-02-11T13:20:38.406Z,3.78
2023-02-11T13:23:34.760Z,3.55
2023-02-11T13:26:15.503Z,3.50
2023-02-11T13:28:57.950Z,3.53
2023-02-11T13:31:27.544Z,3.33
2023-02-11T13:33:54.326Z,3.45
2023-02-11T13:36:26.679Z,3.53
2023-02-11T13:38:59.994Z,4.60
2023-02-11T13:41:38.092Z,4.10
2023-02-11T13:44:10.441Z,5.43
2023-02-11T13:46:58.254Z,5.03
2023-02-11T13:49:31.151Z,4.75
2023-02-11T13:51:58.945Z,5.60
2023-02-11T13:54:31.110Z,4.18
2023-02-11T13:57:26.947Z,4.57
2023-02-11T14:00:24.505Z,4.22
2023-02-11T14:03:29.277Z,3.97
2023-02-11T14:06:29.351Z,4.13
2023-02-11T14:09:35.147Z,4.32
2023-02-11T14:12:24.714Z,5.15
2023-02-11T14:15:07.974Z,5.28
2023-02-11T14:17:35.106Z,6.13
2023-02-11T14:20:04.741Z,6.55
2023-02-11T14:22:44.485Z,6.45
2023-02-11T14:25:22.774Z,5.95
2023-02-11T14:27:56.727Z,5.53
2023-02-11T14:30:46.164Z,4.50
2023-02-11T14:33:31.337Z,3.22
2023-02-11T14:36:16.322Z,3.58
2023-02-11T14:38:52.866Z,3.22
2023-02-11T14:41:34.201Z,3.13
2023-02-11T14:44:15.545Z,4.20
2023-02-11T14:46:47.870Z,4.53
2023-02-11T14:49:39.470Z,3.87
2023-02-11T14:52:24.611Z,5.32
2023-02-11T14:54:53.499Z,6.57
2023-02-11T14:57:20.886Z,5.03
2023-02-11T15:00:02.306Z,4.88
2023-02-11T15:02:33.567Z,6.00
2023-02-11T15:05:16.515Z,7.60
2023-02-11T15:07:52.988Z,6.85
2023-02-11T15:10:43.697Z,6.65
2023-02-11T15:13:19.769Z,10.93
2023-02-11T15:15:48.902Z,8.82
2023-02-11T15:18:22.742Z,5.97
2023-02-11T15:20:50.919Z,7.53
2023-02-11T15:23:27.364Z,7.70
2023-02-11T15:25:56.349Z,6.75
2023-02-11T15:28:31.679Z,7.93
2023-02-11T15:31:06.673Z,7.35
2023-02-11T15:33:33.506Z,6.82
2023-02-11T15:36:01.900Z,9.27
2023-02-11T15:38:30.242Z,6.78
2023-02-11T15:41:02.297Z,6.80
2023-02-11T15:43:42.863Z,6.07
2023-02-11T15:46:11.958Z,7.88
2023-02-11T15:48:51.892Z,6.07
2023-02-11T15:51:32.899Z,7.13
2023-02-11T15:54:02.620Z,6.60
2023-02-11T15:56:44.221Z,5.57
2023-02-11T15:59:25.877Z,5.60
2023-02-11T16:01:54.698Z,4.80
2023-02-11T16:04:24.197Z,4.53
2023-02-11T16:06:52.020Z,5.65
2023-02-11T16:09:34.063Z,6.20
2023-02-11T16:12:04.611Z,5.75
2023-02-11T16:14:34.348Z,10.70
2023-02-11T16:17:12.161Z,13.20
2023-02-11T16:19:48.595Z,6.53
2023-02-11T16:22:22.792Z,5.63
2023-02-11T16:24:52.761Z,5.30
2023-02-11T16:27:23.856Z,6.82
2023-02-11T16:29:51.364Z,7.22
2023-02-11T16:32:25.170Z,12.98
2023-02-11T16:34:53.568Z,9.95
2023-02-11T16:37:20.168Z,9.20
2023-02-11T16:39:46.942Z,7.32
2023-02-11T16:42:13.662Z,6.20
2023-02-11T16:44:40.328Z,10.88
2023-02-11T16:47:17.255Z,15.10
2023-02-11T16:49:43.991Z,28.23
2023-02-11T16:52:14.846Z,28.83
2023-02-11T16:54:41.712Z,13.02
2023-02-11T16:57:23.097Z,11.55
2023-02-11T16:59:50.344Z,7.40
2023-02-11T17:02:24.088Z,12.00
2023-02-11T17:04:53.464Z,12.82
2023-02-11T17:07:20.200Z,8.98
2023-02-11T17:09:46.790Z,9.30
2023-02-11T17:12:13.400Z,7.68
2023-02-11T17:14:40.020Z,5.90
2023-02-11T17:17:06.777Z,6.10
2023-02-11T17:19:33.371Z,6.10
2023-02-11T17:21:59.942Z,5.75
2023-02-11T17:24:26.556Z,6.25
2023-02-11T17:26:53.345Z,5.43
2023-02-11T17:29:23.113Z,7.07
2023-02-11T17:31:52.013Z,5.57
2023-02-11T17:34:20.531Z,7.07
2023-02-11T17:36:47.517Z,6.50
2023-02-11T17:39:14.265Z,8.45
2023-02-11T17:41:41.037Z,6.55
2023-02-11T17:44:08.478Z,5.57
2023-02-11T17:46:35.596Z,5.53
2023-02-11T17:49:03.449Z,6.07
2023-02-11T17:51:32.972Z,6.13
2023-02-11T17:54:02.406Z,7.18
2023-02-11T17:56:31.327Z,5.05
2023-02-11T17:58:57.990Z,5.75
2023-02-11T18:01:27.475Z,6.00
2023-02-11T18:03:54.103Z,5.97
2023-02-11T18:06:21.689Z,7.25
2023-02-11T18:08:48.549Z,6.93
2023-02-11T18:11:16.480Z,6.93
2023-02-11T18:13:45.253Z,7.43
2023-02-11T18:16:15.914Z,9.75
2023-02-11T18:18:43.443Z,7.78
2023-02-11T18:21:17.762Z,18.00
2023-02-11T18:23:44.647Z,10.05
2023-02-11T18:26:13.029Z,8.38
2023-02-11T18:28:41.165Z,6.40
2023-02-11T18:31:10.651Z,7.40
2023-02-11T18:33:41.272Z,6.47
2023-02-11T18:36:10.065Z,7.20
2023-02-11T18:38:36.781Z,6.93
2023-02-11T18:41:04.364Z,6.45
2023-02-11T18:43:33.671Z,6.72
2023-02-11T18:46:02.152Z,7.90
2023-02-11T18:48:28.860Z,7.53
2023-02-11T18:50:55.835Z,7.03
2023-02-11T18:53:23.289Z,6.40
2023-02-11T18:55:50.092Z,7.55
2023-02-11T18:58:17.183Z,11.07
2023-02-11T19:00:49.191Z,7.03
2023-02-11T19:03:16.881Z,6.85
2023-02-11T19:05:47.949Z,11.38
2023-02-11T19:08:15.267Z,8.57
2023-02-11T19:10:43.850Z,11.43
2023-02-11T19:13:10.708Z,7.10
2023-02-11T19:15:46.692Z,6.38
2023-02-11T19:18:14.741Z,7.15
2023-02-11T19:20:43.476Z,8.65
2023-02-11T19:23:10.930Z,7.30
2023-02-11T19:25:38.232Z,5.65
2023-02-11T19:28:05.036Z,6.47
2023-02-11T19:30:31.692Z,6.65
2023-02-11T19:32:58.415Z,8.30
2023-02-11T19:35:25.556Z,11.10
2023-02-11T19:37:52.260Z,11.07
2023-02-11T19:40:21.254Z,9.80
2023-02-11T19:42:48.234Z,7.32
2023-02-11T19:45:14.948Z,8.48
2023-02-11T19:47:41.537Z,7.53
2023-02-11T19:50:09.434Z,7.70
2023-02-11T19:52:40.550Z,10.38
2023-02-11T19:55:07.773Z,9.13
2023-02-11T19:57:34.365Z,9.40
2023-02-11T20:00:01.467Z,9.00
2023-02-11T20:02:29.255Z,8.05
2023-02-11T20:04:55.878Z,6.97
2023-02-11T20:07:22.575Z,6.65
2023-02-11T20:09:49.173Z,6.40
2023-02-11T20:12:15.750Z,7.18
2023-02-11T20:14:42.340Z,6.65
2023-02-11T20:17:08.929Z,11.57
2023-02-11T20:19:35.540Z,9.80
2023-02-11T20:22:02.148Z,6.05
2023-02-11T20:24:28.713Z,6.80
2023-02-11T20:26:56.125Z,5.63
2023-02-11T20:29:23.811Z,6.60
2023-02-11T20:31:50.956Z,16.45
2023-02-11T20:34:18.763Z,7.47
2023-02-11T20:36:51.976Z,7.78
2023-02-11T20:39:21.741Z,8.85
2023-02-11T20:41:48.724Z,7.82
2023-02-11T20:44:15.359Z,6.93
2023-02-11T20:46:46.528Z,6.20
2023-02-11T20:49:16.731Z,7.30
2023-02-11T20:51:43.475Z,15.10
2023-02-11T20:54:18.792Z,10.50
2023-02-11T20:56:48.106Z,10.05
2023-02-11T20:59:16.703Z,8.55
2023-02-11T21:01:46.233Z,7.93
2023-02-11T21:04:16.790Z,14.10
2023-02-11T21:06:47.310Z,13.63
2023-02-11T21:09:17.429Z,8.20
2023-02-11T21:11:44.003Z,7.78
2023-02-11T21:14:12.020Z,8.40
2023-02-11T21:16:39.861Z,8.75
2023-02-11T21:19:06.976Z,8.82
2023-02-11T21:21:36.050Z,7.93
2023-02-11T21:24:02.730Z,8.70
2023-02-11T21:26:29.364Z,8.30
2023-02-11T21:28:55.991Z,8.00
2023-02-11T21:31:26.150Z,7.97
2023-02-11T21:33:55.089Z,9.35
2023-02-11T21:36:23.524Z,9.38
2023-02-11T21:38:50.266Z,9.13
2023-02-11T21:41:18.515Z,7.38
2023-02-11T21:43:45.732Z,8.05
2023-02-11T21:46:14.593Z,8.57
2023-02-11T21:48:41.617Z,7.68
2023-02-11T21:51:12.824Z,7.03
2023-02-11T21:53:39.496Z,6.95
2023-02-11T21:56:08.776Z,7.50
2023-02-11T21:58:36.535Z,8.07
2023-02-11T22:01:14.622Z,7.03
2023-02-11T22:03:41.846Z,7.20
2023-02-11T22:06:11.422Z,8.43
2023-02-11T22:08:39.661Z,7.40
2023-02-11T22:11:09.093Z,8.02
2023-02-11T22:13:36.636Z,7.95
2023-02-11T22:16:07.409Z,18.20
2023-02-11T22:18:34.120Z,13.70
2023-02-11T22:21:02.651Z,12.75
2023-02-11T22:23:30.053Z,8.98
2023-02-11T22:25:57.679Z,8.98
2023-02-11T22:28:25.981Z,8.65
2023-02-11T22:30:56.985Z,7.43
2023-02-11T22:33:28.612Z,7.30
2023-02-11T22:36:03.575Z,8.30
2023-02-11T22:38:32.368Z,7.97
2023-02-11T22:41:00.625Z,7.88
2023-02-11T22:43:27.978Z,7.45
2023-02-11T22:45:56.574Z,9.85
2023-02-11T22:48:23.446Z,11.45
2023-02-11T22:50:50.041Z,10.38
2023-02-11T22:53:16.680Z,14.73
2023-02-11T22:55:43.573Z,9.82
2023-02-11T22:58:10.465Z,9.95
2023-02-11T23:00:41.548Z,10.02
2023-02-11T23:03:10.214Z,11.65
2023-02-11T23:05:41.458Z,10.93
2023-02-11T23:08:10.205Z,10.95
2023-02-11T23:10:38.618Z,10.73
2023-02-11T23:13:06.646Z,10.10
2023-02-11T23:15:34.034Z,10.77
2023-02-11T23:18:00.656Z,11.27
2023-02-11T23:20:27.269Z,11.18
2023-02-11T23:22:53.904Z,11.20
2023-02-11T23:25:20.487Z,10.90
2023-02-11T23:27:47.133Z,11.00
2023-02-11T23:30:14.192Z,12.70
2023-02-11T23:32:40.920Z,10.90
2023-02-11T23:35:07.844Z,10.35
2023-02-11T23:37:34.521Z,12.18
2023-02-11T23:40:01.139Z,11.07
2023-02-11T23:42:28.797Z,11.20
2023-02-11T23:44:55.404Z,11.73
2023-02-11T23:47:22.018Z,11.45
2023-02-11T23:49:48.602Z,10.65
2023-02-11T23:52:15.301Z,11.18
2023-02-11T23:54:43.402Z,10.77
2023-02-11T23:57:10.148Z,12.25
2023-02-11T23:59:36.886Z,11.85
